createdAt,value
2019-02-18T00:03:35.444Z,24.80
2019-02-18T00:08:37.854Z,24.80
2019-02-18T00:13:39.220Z,24.80
2019-02-18T00:18:40.559Z,24.80
2019-02-18T00:23:41.964Z,24.80
2019-02-18T00:28:43.390Z,24.70
2019-02-18T00:33:44.802Z,24.80
2019-02-18T00:38:46.220Z,24.70
2019-02-18T00:43:47.616Z,24.70
2019-02-18T00:48:48.983Z,24.70
2019-02-18T00:53:51.367Z,24.70
2019-02-18T00:58:52.698Z,24.70
2019-02-18T01:03:54.087Z,24.70
2019-02-18T01:08:55.448Z,24.60
2019-02-18T01:13:56.826Z,24.70
2019-02-18T01:18:58.187Z,24.60
2019-02-18T01:23:59.538Z,24.50
2019-02-18T01:29:00.910Z,24.50
2019-02-18T01:34:04.326Z,24.40
2019-02-18T01:39:05.664Z,24.30
2019-02-18T01:44:07.065Z,24.30
2019-02-18T01:49:08.424Z,24.20
2019-02-18T01:54:09.883Z,24.20
2019-02-18T01:59:11.241Z,24.20
2019-02-18T02:04:13.643Z,24.20
2019-02-18T02:09:16.029Z,24.10
2019-02-18T02:14:17.457Z,24.10
2019-02-18T02:19:18.949Z,24.00
2019-02-18T02:24:20.324Z,24.00
2019-02-18T02:29:21.690Z,24.00
2019-02-18T02:34:23.038Z,24.00
2019-02-18T02:39:24.406Z,23.90
2019-02-18T02:44:26.828Z,23.90
2019-02-18T02:49:28.168Z,23.90
2019-02-18T02:54:29.535Z,23.90
2019-02-18T02:59:30.870Z,23.90
2019-02-18T03:04:32.335Z,23.80
2019-02-18T03:09:33.721Z,23.80
2019-02-18T03:14:35.086Z,23.80
2019-02-18T03:19:36.426Z,23.80
2019-02-18T03:25:00.306Z,23.80
2019-02-18T03:30:16.161Z,23.70
2019-02-18T03:35:17.590Z,23.80
2019-02-18T03:40:18.975Z,23.70
2019-02-18T03:45:20.337Z,23.70
2019-02-18T03:50:21.728Z,23.70
2019-02-18T03:55:23.672Z,23.70
2019-02-18T04:00:25.021Z,23.70
2019-02-18T04:05:26.400Z,23.70
2019-02-18T04:10:27.793Z,23.70
2019-02-18T04:15:29.213Z,23.70
2019-02-18T04:20:31.643Z,23.70
2019-02-18T04:25:33.072Z,23.70
2019-02-18T04:30:34.464Z,23.60
2019-02-18T04:35:35.794Z,23.60
2019-02-18T04:40:38.250Z,23.60
2019-02-18T04:45:39.651Z,23.60
2019-02-18T04:50:41.071Z,23.60
2019-02-18T04:55:42.519Z,23.50
2019-02-18T05:00:43.947Z,23.60
2019-02-18T05:05:45.336Z,23.60
2019-02-18T05:10:46.666Z,23.50
2019-02-18T05:15:48.086Z,23.50
2019-02-18T05:20:49.508Z,23.50
2019-02-18T05:25:50.919Z,23.50
2019-02-18T05:30:52.359Z,23.50
2019-02-18T05:35:55.872Z,23.50
2019-02-18T05:40:57.037Z,23.50
2019-02-18T05:45:58.373Z,23.50
2019-02-18T05:50:59.782Z,23.40
2019-02-18T05:56:01.297Z,23.40
2019-02-18T06:01:02.819Z,23.50
2019-02-18T06:06:04.234Z,23.40
2019-02-18T06:11:05.651Z,23.40
2019-02-18T06:16:07.069Z,23.40
2019-02-18T06:21:08.460Z,23.40
2019-02-18T06:26:09.837Z,23.40
2019-02-18T06:31:11.401Z,23.40
2019-02-18T06:36:12.733Z,23.30
2019-02-18T06:41:14.132Z,23.40
2019-02-18T06:46:26.302Z,23.40
2019-02-18T06:51:28.847Z,23.40
2019-02-18T06:56:32.271Z,23.30
2019-02-18T07:01:36.645Z,23.30
2019-02-18T07:06:39.946Z,23.30
2019-02-18T07:11:52.018Z,23.30
2019-02-18T07:16:53.451Z,23.30
2019-02-18T07:21:54.836Z,23.30
2019-02-18T07:26:56.185Z,23.30
2019-02-18T07:31:57.711Z,23.20
2019-02-18T07:36:59.115Z,23.20
2019-02-18T07:42:02.544Z,23.20
2019-02-18T07:47:03.980Z,23.20
2019-02-18T07:52:05.371Z,23.30
2019-02-18T07:57:06.841Z,23.30
2019-02-18T08:02:08.212Z,23.30
2019-02-18T08:07:09.636Z,23.30
2019-02-18T08:12:11.044Z,23.30
2019-02-18T08:17:12.471Z,23.30
2019-02-18T08:22:13.880Z,23.40
2019-02-18T08:27:15.304Z,23.30
2019-02-18T08:32:16.683Z,23.40
2019-02-18T08:37:18.068Z,23.40
2019-02-18T08:42:19.644Z,23.40
2019-02-18T08:47:21.109Z,23.40
2019-02-18T08:52:22.533Z,23.40
2019-02-18T08:57:24.268Z,23.40
2019-02-18T09:02:25.967Z,23.50
2019-02-18T09:07:28.803Z,23.60
2019-02-18T09:12:30.131Z,23.70
2019-02-18T09:17:31.532Z,23.80
2019-02-18T09:22:38.012Z,23.90
2019-02-18T09:27:39.357Z,24.00
2019-02-18T09:32:40.771Z,24.10
2019-02-18T09:37:42.192Z,24.20
2019-02-18T09:42:43.585Z,24.30
2019-02-18T09:47:45.020Z,24.30
2019-02-18T09:52:47.412Z,24.30
2019-02-18T09:57:48.779Z,24.40
2019-02-18T10:02:50.117Z,24.40
2019-02-18T10:07:51.462Z,25.10
2019-02-18T10:12:52.870Z,24.70
2019-02-18T10:17:54.284Z,24.80
2019-02-18T10:22:56.014Z,25.00
2019-02-18T10:27:57.403Z,25.00
2019-02-18T10:32:58.827Z,25.10
2019-02-18T10:38:00.250Z,25.10
2019-02-18T10:43:01.688Z,25.30
2019-02-18T10:48:03.279Z,25.30
2019-02-18T10:53:04.738Z,25.40
2019-02-18T10:58:06.200Z,25.50
2019-02-18T11:03:09.203Z,25.50
2019-02-18T11:08:11.022Z,25.60
2019-02-18T11:13:12.447Z,25.60
2019-02-18T11:18:13.860Z,25.60
2019-02-18T11:23:15.268Z,25.70
2019-02-18T11:28:17.139Z,25.70
2019-02-18T11:33:19.510Z,25.70
2019-02-18T11:38:20.847Z,25.70
2019-02-18T11:43:22.355Z,25.70
2019-02-18T11:48:23.796Z,25.70
2019-02-18T11:53:25.447Z,25.70
2019-02-18T11:58:26.848Z,25.70
2019-02-18T12:03:28.336Z,25.70
2019-02-18T12:08:29.800Z,25.70
2019-02-18T12:13:32.338Z,25.70
2019-02-18T12:18:33.733Z,25.70
2019-02-18T12:23:35.096Z,25.80
2019-02-18T12:28:36.544Z,25.80
2019-02-18T12:33:38.238Z,25.80
2019-02-18T12:38:41.056Z,25.80
2019-02-18T12:43:42.802Z,25.80
2019-02-18T12:48:44.155Z,25.80
2019-02-18T12:53:46.468Z,25.80
2019-02-18T12:58:54.687Z,25.80
2019-02-18T13:03:51.450Z,25.80
2019-02-18T13:08:52.895Z,25.80
2019-02-18T13:13:54.246Z,25.80
2019-02-18T13:18:55.661Z,25.80
2019-02-18T13:23:57.166Z,25.70
2019-02-18T13:28:58.714Z,25.70
2019-02-18T13:34:00.111Z,25.70
2019-02-18T13:39:01.525Z,25.70
2019-02-18T13:44:03.263Z,25.70
2019-02-18T13:49:04.619Z,25.70
2019-02-18T13:54:06.016Z,25.70
2019-02-18T13:59:08.808Z,25.60
2019-02-18T14:04:10.362Z,25.70
2019-02-18T14:09:11.844Z,25.60
2019-02-18T14:14:13.201Z,25.60
2019-02-18T14:19:14.694Z,25.60
2019-02-18T14:24:16.105Z,25.60
2019-02-18T14:29:18.524Z,25.60
2019-02-18T14:34:19.999Z,25.60
2019-02-18T14:39:23.655Z,25.60
2019-02-18T14:44:25.258Z,25.60
2019-02-18T14:49:26.639Z,25.60
2019-02-18T14:54:28.214Z,25.60
2019-02-18T14:59:29.778Z,25.50
2019-02-18T15:04:31.646Z,25.50
2019-02-18T15:09:32.988Z,25.50
2019-02-18T15:14:34.360Z,25.50
2019-02-18T15:19:35.733Z,25.50
2019-02-18T15:24:37.199Z,25.50
2019-02-18T15:29:38.555Z,25.50
2019-02-18T15:34:39.940Z,25.50
2019-02-18T15:39:41.367Z,25.50
2019-02-18T15:44:43.349Z,25.50
2019-02-18T15:49:44.820Z,25.50
2019-02-18T15:54:46.202Z,25.50
2019-02-18T15:59:47.650Z,25.50
2019-02-18T16:04:49.070Z,25.50
2019-02-18T16:09:50.492Z,25.60
2019-02-18T16:14:51.887Z,25.60
2019-02-18T16:19:53.326Z,25.50
2019-02-18T16:24:55.218Z,25.50
2019-02-18T16:29:56.656Z,25.50
2019-02-18T16:34:58.097Z,25.50
2019-02-18T16:39:59.811Z,25.50
2019-02-18T16:45:01.210Z,25.50
2019-02-18T16:50:04.760Z,25.50
2019-02-18T16:55:12.424Z,25.50
2019-02-18T17:00:31.754Z,25.50
2019-02-18T17:05:33.470Z,25.40
2019-02-18T17:10:34.856Z,25.40
2019-02-18T17:15:36.285Z,25.30
2019-02-18T17:20:37.679Z,25.40
2019-02-18T17:25:39.108Z,25.30
2019-02-18T17:30:40.501Z,25.30
2019-02-18T17:35:42.874Z,25.20
2019-02-18T17:40:44.558Z,25.10
2019-02-18T17:45:45.888Z,25.10
2019-02-18T17:50:47.287Z,25.00
2019-02-18T17:55:48.668Z,25.00
2019-02-18T18:00:52.007Z,25.00
2019-02-18T18:05:53.425Z,25.00
2019-02-18T18:10:55.813Z,24.90
2019-02-18T18:15:57.543Z,24.90
2019-02-18T18:20:58.961Z,24.90
2019-02-18T18:26:00.486Z,24.80
2019-02-18T18:31:01.889Z,24.80
2019-02-18T18:36:03.327Z,24.70
2019-02-18T18:41:04.805Z,24.70
2019-02-18T18:46:06.630Z,24.70
2019-02-18T18:51:09.118Z,24.70
2019-02-18T18:56:10.631Z,24.70
2019-02-18T19:01:12.023Z,24.70
2019-02-18T19:06:13.453Z,24.70
2019-02-18T19:11:14.860Z,24.60
2019-02-18T19:16:16.290Z,24.60
2019-02-18T19:21:17.691Z,24.60
2019-02-18T19:26:19.136Z,24.60
2019-02-18T19:31:20.575Z,24.50
2019-02-18T19:36:21.981Z,24.50
2019-02-18T19:41:23.419Z,24.50
2019-02-18T19:46:24.826Z,24.40
2019-02-18T19:51:27.079Z,24.40
2019-02-18T19:56:30.586Z,24.40
2019-02-18T20:01:32.036Z,24.40
2019-02-18T20:06:33.528Z,24.40
2019-02-18T20:11:34.970Z,24.40
2019-02-18T20:16:37.596Z,24.40
2019-02-18T20:21:39.050Z,24.40
2019-02-18T20:26:40.450Z,24.30
2019-02-18T20:31:41.906Z,24.30
2019-02-18T20:36:43.323Z,24.30
2019-02-18T20:41:45.065Z,24.30
2019-02-18T20:46:46.464Z,24.30
2019-02-18T20:51:47.858Z,24.30
2019-02-18T20:56:49.428Z,24.30
2019-02-18T21:01:51.814Z,24.20
2019-02-18T21:06:53.255Z,24.30
2019-02-18T21:11:55.700Z,24.30
2019-02-18T21:16:57.212Z,24.30
2019-02-18T21:21:58.892Z,24.30
2019-02-18T21:27:00.338Z,24.20
2019-02-18T21:32:01.707Z,24.20
2019-02-18T21:37:03.187Z,24.20
2019-02-18T21:42:04.547Z,24.20
2019-02-18T21:47:06.461Z,24.10
2019-02-18T21:52:07.989Z,24.10
2019-02-18T21:57:09.365Z,24.10
2019-02-18T22:02:10.747Z,24.10
2019-02-18T22:07:12.199Z,24.20
2019-02-18T22:12:14.015Z,24.20
2019-02-18T22:17:15.454Z,24.10
2019-02-18T22:22:16.887Z,24.10
2019-02-18T22:27:18.279Z,24.10
2019-02-18T22:32:19.715Z,24.10
2019-02-18T22:37:21.957Z,24.10
2019-02-18T22:42:23.799Z,24.10
2019-02-18T22:47:26.159Z,24.10
2019-02-18T22:52:27.568Z,24.10
2019-02-18T22:57:28.995Z,24.10
2019-02-18T23:02:30.481Z,24.00
2019-02-18T23:07:31.929Z,24.10
2019-02-18T23:12:33.312Z,24.00
2019-02-18T23:17:34.744Z,24.00
2019-02-18T23:22:36.165Z,24.00
2019-02-18T23:27:37.590Z,24.00
2019-02-18T23:32:38.970Z,24.00
2019-02-18T23:37:40.417Z,24.00
2019-02-18T23:42:41.832Z,24.00
2019-02-18T23:47:43.292Z,24.00
2019-02-18T23:52:44.959Z,24.00
2019-02-18T23:57:46.376Z,24.00
